sensor_id;sensor_type;location;lat;lon;timestamp;pressure;altitude;pressure_sealevel;temperature;humidity
40872;BME280;26591;43.264;26.940;2023-03-19T00:00:23;99582.34;;;6.47;81.56
40872;BME280;26591;43.264;26.940;2023-03-19T00:02:48;99587.09;;;6.53;80.87
40872;BME280;26591;43.264;26.940;2023-03-19T00:05:17;99582.09;;;6.50;81.13
40872;BME280;26591;43.264;26.940;2023-03-19T00:07:43;99579.97;;;6.65;81.19
40872;BME280;26591;43.264;26.940;2023-03-19T00:10:10;99577.16;;;6.78;80.24
40872;BME280;26591;43.264;26.940;2023-03-19T00:12:35;99579.97;;;6.86;80.18
40872;BME280;26591;43.264;26.940;2023-03-19T00:15:02;99570.69;;;6.82;79.91
40872;BME280;26591;43.264;26.940;2023-03-19T00:17:27;99573.84;;;6.76;80.16
40872;BME280;26591;43.264;26.940;2023-03-19T00:19:53;99573.91;;;6.85;79.93
40872;BME280;26591;43.264;26.940;2023-03-19T00:22:18;99574.22;;;6.71;79.82
40872;BME280;26591;43.264;26.940;2023-03-19T00:24:44;99575.97;;;6.82;79.97
40872;BME280;26591;43.264;26.940;2023-03-19T00:27:09;99577.16;;;6.78;79.24
40872;BME280;26591;43.264;26.940;2023-03-19T00:29:35;99576.22;;;6.57;80.26
40872;BME280;26591;43.264;26.940;2023-03-19T00:32:00;99578.44;;;6.83;79.96
40872;BME280;26591;43.264;26.940;2023-03-19T00:34:26;99575.75;;;6.74;80.29
40872;BME280;26591;43.264;26.940;2023-03-19T00:36:52;99571.34;;;6.95;79.49
40872;BME280;26591;43.264;26.940;2023-03-19T00:39:18;99578.63;;;6.92;79.16
40872;BME280;26591;43.264;26.940;2023-03-19T00:41:44;99571.19;;;6.97;79.44
40872;BME280;26591;43.264;26.940;2023-03-19T00:44:15;99574.41;;;6.79;79.53
40872;BME280;26591;43.264;26.940;2023-03-19T00:46:41;99578.53;;;6.72;79.60
40872;BME280;26591;43.264;26.940;2023-03-19T00:49:06;99586.53;;;6.92;79.01
40872;BME280;26591;43.264;26.940;2023-03-19T00:51:32;99578.19;;;6.65;79.93
40872;BME280;26591;43.264;26.940;2023-03-19T00:53:57;99582.28;;;6.79;79.80
40872;BME280;26591;43.264;26.940;2023-03-19T00:56:23;99584.75;;;6.92;79.88
40872;BME280;26591;43.264;26.940;2023-03-19T00:58:48;99579.97;;;6.86;79.14
40872;BME280;26591;43.264;26.940;2023-03-19T01:01:15;99570.88;;;6.69;79.73
40872;BME280;26591;43.264;26.940;2023-03-19T01:03:42;99568.25;;;6.90;79.72
40872;BME280;26591;43.264;26.940;2023-03-19T01:06:09;99564.47;;;6.62;80.32
40872;BME280;26591;43.264;26.940;2023-03-19T01:08:35;99561.88;;;6.50;80.28
40872;BME280;26591;43.264;26.940;2023-03-19T01:11:12;99564.19;;;6.44;81.12
40872;BME280;26591;43.264;26.940;2023-03-19T01:13:40;99561.06;;;6.71;80.64
40872;BME280;26591;43.264;26.940;2023-03-19T01:16:06;99556.63;;;6.50;80.36
40872;BME280;26591;43.264;26.940;2023-03-19T01:18:32;99558.28;;;6.51;81.02
40872;BME280;26591;43.264;26.940;2023-03-19T01:20:58;99561.75;;;6.31;81.19
40872;BME280;26591;43.264;26.940;2023-03-19T01:23:23;99557.16;;;6.33;81.30
40872;BME280;26591;43.264;26.940;2023-03-19T01:25:49;99558.50;;;6.27;81.92
40872;BME280;26591;43.264;26.940;2023-03-19T01:28:15;99561.13;;;6.38;81.59
40872;BME280;26591;43.264;26.940;2023-03-19T01:30:41;99560.97;;;6.40;82.11
40872;BME280;26591;43.264;26.940;2023-03-19T01:33:06;99572.66;;;6.15;82.03
40872;BME280;26591;43.264;26.940;2023-03-19T01:35:32;99559.81;;;6.33;82.05
40872;BME280;26591;43.264;26.940;2023-03-19T01:37:57;99557.78;;;6.57;81.29
40872;BME280;26591;43.264;26.940;2023-03-19T01:40:23;99560.75;;;6.64;80.65
40872;BME280;26591;43.264;26.940;2023-03-19T01:45:38;99551.56;;;6.37;81.48
40872;BME280;26591;43.264;26.940;2023-03-19T01:48:05;99554.47;;;6.55;81.32
40872;BME280;26591;43.264;26.940;2023-03-19T01:50:39;99552.31;;;6.70;80.79
40872;BME280;26591;43.264;26.940;2023-03-19T01:53:08;99551.13;;;6.75;80.33
40872;BME280;26591;43.264;26.940;2023-03-19T01:55:36;99545.66;;;6.45;80.67
40872;BME280;26591;43.264;26.940;2023-03-19T01:58:02;99543.78;;;6.36;81.25
40872;BME280;26591;43.264;26.940;2023-03-19T02:00:29;99548.38;;;6.22;82.44
40872;BME280;26591;43.264;26.940;2023-03-19T02:02:58;99549.97;;;6.14;82.16
40872;BME280;26591;43.264;26.940;2023-03-19T02:05:25;99546.28;;;6.05;82.18
40872;BME280;26591;43.264;26.940;2023-03-19T02:07:53;99548.19;;;6.14;82.28
40872;BME280;26591;43.264;26.940;2023-03-19T02:10:21;99555.13;;;6.04;83.11
40872;BME280;26591;43.264;26.940;2023-03-19T02:12:47;99558.22;;;6.09;83.03
40872;BME280;26591;43.264;26.940;2023-03-19T02:15:12;99557.28;;;6.10;82.31
40872;BME280;26591;43.264;26.940;2023-03-19T02:17:39;99553.63;;;6.22;82.36
40872;BME280;26591;43.264;26.940;2023-03-19T02:22:35;99562.06;;;6.37;81.54
40872;BME280;26591;43.264;26.940;2023-03-19T02:25:09;99556.50;;;6.31;81.70
40872;BME280;26591;43.264;26.940;2023-03-19T02:27:36;99558.78;;;6.24;81.98
40872;BME280;26591;43.264;26.940;2023-03-19T02:30:21;99571.63;;;6.38;82.04
40872;BME280;26591;43.264;26.940;2023-03-19T02:32:47;99573.50;;;6.48;81.68
40872;BME280;26591;43.264;26.940;2023-03-19T02:35:13;99577.56;;;6.40;81.49
40872;BME280;26591;43.264;26.940;2023-03-19T02:37:38;99583.50;;;6.21;82.17
40872;BME280;26591;43.264;26.940;2023-03-19T02:40:06;99584.22;;;6.23;82.32
40872;BME280;26591;43.264;26.940;2023-03-19T02:42:33;99583.03;;;6.28;81.72
40872;BME280;26591;43.264;26.940;2023-03-19T02:44:59;99577.84;;;6.37;82.06
40872;BME280;26591;43.264;26.940;2023-03-19T02:47:27;99584.22;;;6.23;81.69
40872;BME280;26591;43.264;26.940;2023-03-19T02:49:52;99580.91;;;6.10;82.33
40872;BME280;26591;43.264;26.940;2023-03-19T02:52:18;99590.00;;;6.17;82.19
40872;BME280;26591;43.264;26.940;2023-03-19T02:54:44;99579.81;;;6.13;83.03
40872;BME280;26591;43.264;26.940;2023-03-19T02:57:11;99584.13;;;6.14;82.50
40872;BME280;26591;43.264;26.940;2023-03-19T02:59:36;99584.47;;;6.20;82.99
40872;BME280;26591;43.264;26.940;2023-03-19T03:02:03;99587.00;;;6.10;83.07
40872;BME280;26591;43.264;26.940;2023-03-19T03:04:29;99587.91;;;6.32;82.10
40872;BME280;26591;43.264;26.940;2023-03-19T03:06:55;99590.22;;;6.14;82.37
40872;BME280;26591;43.264;26.940;2023-03-19T03:09:20;99600.75;;;6.14;82.56
40872;BME280;26591;43.264;26.940;2023-03-19T03:11:46;99594.72;;;6.23;82.29
40872;BME280;26591;43.264;26.940;2023-03-19T03:14:12;99597.50;;;6.22;82.61
40872;BME280;26591;43.264;26.940;2023-03-19T03:16:40;99594.88;;;6.10;82.54
40872;BME280;26591;43.264;26.940;2023-03-19T03:19:06;99595.81;;;6.21;82.39
40872;BME280;26591;43.264;26.940;2023-03-19T03:21:56;99606.69;;;6.28;82.08
40872;BME280;26591;43.264;26.940;2023-03-19T03:24:21;99606.19;;;6.22;82.00
40872;BME280;26591;43.264;26.940;2023-03-19T03:26:57;99609.66;;;6.34;81.67
40872;BME280;26591;43.264;26.940;2023-03-19T03:29:23;99614.66;;;6.37;81.85
40872;BME280;26591;43.264;26.940;2023-03-19T03:31:48;99605.06;;;6.48;81.40
40872;BME280;26591;43.264;26.940;2023-03-19T03:34:16;99615.38;;;6.28;81.29
40872;BME280;26591;43.264;26.940;2023-03-19T03:36:42;99616.56;;;6.35;81.79
40872;BME280;26591;43.264;26.940;2023-03-19T03:39:08;99607.41;;;6.30;81.46
40872;BME280;26591;43.264;26.940;2023-03-19T03:41:33;99610.66;;;6.22;81.75
40872;BME280;26591;43.264;26.940;2023-03-19T03:43:59;99611.41;;;6.01;82.39
40872;BME280;26591;43.264;26.940;2023-03-19T03:46:24;99613.03;;;6.14;82.56
40872;BME280;26591;43.264;26.940;2023-03-19T03:48:50;99614.81;;;6.24;82.30
40872;BME280;26591;43.264;26.940;2023-03-19T03:51:17;99617.84;;;6.08;82.35
40872;BME280;26591;43.264;26.940;2023-03-19T03:53:43;99616.41;;;5.93;83.22
40872;BME280;26591;43.264;26.940;2023-03-19T03:56:26;99615.22;;;6.08;83.10
40872;BME280;26591;43.264;26.940;2023-03-19T03:58:52;99620.81;;;5.92;83.90
40872;BME280;26591;43.264;26.940;2023-03-19T04:01:18;99616.28;;;6.06;83.19
40872;BME280;26591;43.264;26.940;2023-03-19T04:03:44;99612.81;;;5.94;83.92
40872;BME280;26591;43.264;26.940;2023-03-19T04:06:16;99611.38;;;6.13;83.50
40872;BME280;26591;43.264;26.940;2023-03-19T04:08:43;99617.72;;;6.10;83.54
40872;BME280;26591;43.264;26.940;2023-03-19T04:11:08;99618.47;;;6.01;83.37
40872;BME280;26591;43.264;26.940;2023-03-19T04:13:34;99616.88;;;6.09;83.51
40872;BME280;26591;43.264;26.940;2023-03-19T04:16:05;99615.22;;;6.08;83.22
40872;BME280;26591;43.264;26.940;2023-03-19T04:18:31;99620.78;;;6.26;82.90
40872;BME280;26591;43.264;26.940;2023-03-19T04:20:59;99617.44;;;6.24;82.90
40872;BME280;26591;43.264;26.940;2023-03-19T04:23:24;99614.66;;;6.37;82.17
40872;BME280;26591;43.264;26.940;2023-03-19T04:25:50;99607.09;;;6.44;81.92
40872;BME280;26591;43.264;26.940;2023-03-19T04:28:16;99604.97;;;6.38;82.16
40872;BME280;26591;43.264;26.940;2023-03-19T04:30:42;99605.03;;;6.15;82.71
40872;BME280;26591;43.264;26.940;2023-03-19T04:33:09;99604.81;;;6.07;83.44
40872;BME280;26591;43.264;26.940;2023-03-19T04:35:35;99601.53;;;6.26;82.89
40872;BME280;26591;43.264;26.940;2023-03-19T04:38:01;99606.19;;;6.22;82.85
40872;BME280;26591;43.264;26.940;2023-03-19T04:40:27;99616.16;;;6.51;82.19
40872;BME280;26591;43.264;26.940;2023-03-19T04:42:52;99616.06;;;6.41;82.07
40872;BME280;26591;43.264;26.940;2023-03-19T04:45:19;99617.63;;;6.33;82.40
40872;BME280;26591;43.264;26.940;2023-03-19T04:47:46;99628.09;;;6.55;82.32
40872;BME280;26591;43.264;26.940;2023-03-19T04:50:11;99632.09;;;6.71;81.35
40872;BME280;26591;43.264;26.940;2023-03-19T04:52:38;99634.16;;;6.56;82.16
40872;BME280;26591;43.264;26.940;2023-03-19T04:55:06;99639.06;;;6.61;80.88
40872;BME280;26591;43.264;26.940;2023-03-19T04:57:32;99639.53;;;6.66;81.42
40872;BME280;26591;43.264;26.940;2023-03-19T04:59:58;99633.22;;;6.57;81.80
40872;BME280;26591;43.264;26.940;2023-03-19T05:02:24;99635.72;;;6.59;81.05
40872;BME280;26591;43.264;26.940;2023-03-19T05:04:50;99640.47;;;6.65;81.43
40872;BME280;26591;43.264;26.940;2023-03-19T05:07:15;99636.44;;;6.61;81.42
40872;BME280;26591;43.264;26.940;2023-03-19T05:09:41;99633.50;;;6.43;81.88
40872;BME280;26591;43.264;26.940;2023-03-19T05:12:09;99641.09;;;6.57;82.05
40872;BME280;26591;43.264;26.940;2023-03-19T05:14:34;99637.28;;;6.61;81.61
40872;BME280;26591;43.264;26.940;2023-03-19T05:17:00;99642.53;;;6.61;81.37
40872;BME280;26591;43.264;26.940;2023-03-19T05:19:26;99642.53;;;6.61;81.56
40872;BME280;26591;43.264;26.940;2023-03-19T05:21:51;99638.25;;;6.81;81.68
40872;BME280;26591;43.264;26.940;2023-03-19T05:24:20;99638.63;;;6.77;80.98
40872;BME280;26591;43.264;26.940;2023-03-19T05:26:45;99639.28;;;6.69;80.94
40872;BME280;26591;43.264;26.940;2023-03-19T05:29:10;99645.75;;;6.86;80.88
40872;BME280;26591;43.264;26.940;2023-03-19T05:31:38;99645.31;;;6.81;80.83
40872;BME280;26591;43.264;26.940;2023-03-19T05:34:03;99646.09;;;6.93;80.51
40872;BME280;26591;43.264;26.940;2023-03-19T05:36:29;99642.38;;;6.74;80.46
40872;BME280;26591;43.264;26.940;2023-03-19T05:38:55;99653.31;;;6.79;80.85
40872;BME280;26591;43.264;26.940;2023-03-19T05:41:21;99653.63;;;6.65;81.09
40872;BME280;26591;43.264;26.940;2023-03-19T05:43:46;99651.84;;;6.65;80.83
40872;BME280;26591;43.264;26.940;2023-03-19T05:46:11;99660.94;;;6.61;80.75
40872;BME280;26591;43.264;26.940;2023-03-19T05:48:37;99655.47;;;6.85;80.22
40872;BME280;26591;43.264;26.940;2023-03-19T05:51:05;99650.53;;;7.13;79.92
40872;BME280;26591;43.264;26.940;2023-03-19T05:53:31;99652.00;;;7.06;79.64
40872;BME280;26591;43.264;26.940;2023-03-19T05:55:56;99647.31;;;6.89;80.02
40872;BME280;26591;43.264;26.940;2023-03-19T05:58:22;99651.88;;;6.86;80.24
40872;BME280;26591;43.264;26.940;2023-03-19T06:00:47;99650.72;;;7.00;79.50
40872;BME280;26591;43.264;26.940;2023-03-19T06:03:13;99654.59;;;6.96;79.94
40872;BME280;26591;43.264;26.940;2023-03-19T06:05:39;99654.84;;;7.14;79.17
40872;BME280;26591;43.264;26.940;2023-03-19T06:08:05;99654.31;;;6.99;79.59
40872;BME280;26591;43.264;26.940;2023-03-19T06:10:32;99658.94;;;7.07;79.30
40872;BME280;26591;43.264;26.940;2023-03-19T06:12:58;99658.88;;;7.18;78.52
40872;BME280;26591;43.264;26.940;2023-03-19T06:15:30;99657.44;;;7.36;78.28
40872;BME280;26591;43.264;26.940;2023-03-19T06:17:55;99663.13;;;7.62;77.72
40872;BME280;26591;43.264;26.940;2023-03-19T06:20:21;99664.88;;;7.83;77.18
40872;BME280;26591;43.264;26.940;2023-03-19T06:22:46;99669.03;;;8.26;77.82
40872;BME280;26591;43.264;26.940;2023-03-19T06:25:11;99666.38;;;8.26;76.37
40872;BME280;26591;43.264;26.940;2023-03-19T06:27:37;99666.69;;;8.23;75.24
40872;BME280;26591;43.264;26.940;2023-03-19T06:30:03;99659.19;;;8.28;74.00
40872;BME280;26591;43.264;26.940;2023-03-19T06:32:31;99661.41;;;8.43;73.89
40872;BME280;26591;43.264;26.940;2023-03-19T06:34:57;99656.75;;;8.66;73.62
40872;BME280;26591;43.264;26.940;2023-03-19T06:37:24;99647.03;;;8.66;72.70
40872;BME280;26591;43.264;26.940;2023-03-19T06:39:51;99649.81;;;8.94;72.70
40872;BME280;26591;43.264;26.940;2023-03-19T06:42:21;99641.44;;;9.09;71.30
40872;BME280;26591;43.264;26.940;2023-03-19T06:44:48;99640.56;;;9.28;70.79
40872;BME280;26591;43.264;26.940;2023-03-19T06:47:14;99635.28;;;9.38;69.78
40872;BME280;26591;43.264;26.940;2023-03-19T06:49:40;99639.06;;;9.25;69.07
40872;BME280;26591;43.264;26.940;2023-03-19T06:52:06;99643.00;;;9.49;69.23
40872;BME280;26591;43.264;26.940;2023-03-19T06:54:35;99646.19;;;9.53;68.46
40872;BME280;26591;43.264;26.940;2023-03-19T06:57:00;99647.31;;;9.50;68.91
40872;BME280;26591;43.264;26.940;2023-03-19T06:59:26;99646.28;;;9.33;67.93
40872;BME280;26591;43.264;26.940;2023-03-19T07:01:51;99642.47;;;9.45;68.11
40872;BME280;26591;43.264;26.940;2023-03-19T07:04:17;99638.38;;;9.23;68.27
40872;BME280;26591;43.264;26.940;2023-03-19T07:06:43;99645.13;;;9.36;68.43
40872;BME280;26591;43.264;26.940;2023-03-19T07:09:09;99642.81;;;9.23;68.22
40872;BME280;26591;43.264;26.940;2023-03-19T07:11:34;99645.34;;;9.05;68.50
40872;BME280;26591;43.264;26.940;2023-03-19T07:14:00;99640.88;;;9.05;68.88
40872;BME280;26591;43.264;26.940;2023-03-19T07:16:25;99639.38;;;9.03;68.36
40872;BME280;26591;43.264;26.940;2023-03-19T07:18:51;99643.31;;;9.36;68.39
40872;BME280;26591;43.264;26.940;2023-03-19T07:21:16;99647.06;;;9.43;68.11
40872;BME280;26591;43.264;26.940;2023-03-19T07:23:42;99649.66;;;8.86;68.61
40872;BME280;26591;43.264;26.940;2023-03-19T07:26:07;99646.41;;;9.22;68.47
40872;BME280;26591;43.264;26.940;2023-03-19T07:28:33;99648.22;;;9.31;67.48
40872;BME280;26591;43.264;26.940;2023-03-19T07:30:58;99648.66;;;9.26;67.56
40872;BME280;26591;43.264;26.940;2023-03-19T07:33:24;99648.03;;;9.42;67.54
40872;BME280;26591;43.264;26.940;2023-03-19T07:35:50;99649.09;;;9.59;67.20
40872;BME280;26591;43.264;26.940;2023-03-19T07:38:15;99642.25;;;9.67;67.03
40872;BME280;26591;43.264;26.940;2023-03-19T07:40:41;99639.81;;;9.83;66.77
40872;BME280;26591;43.264;26.940;2023-03-19T07:43:06;99645.50;;;9.88;66.12
40872;BME280;26591;43.264;26.940;2023-03-19T07:45:32;99647.53;;;9.67;66.40
40872;BME280;26591;43.264;26.940;2023-03-19T07:47:57;99650.16;;;9.76;66.25
40872;BME280;26591;43.264;26.940;2023-03-19T07:50:25;99640.19;;;10.16;65.51
40872;BME280;26591;43.264;26.940;2023-03-19T07:52:51;99648.56;;;9.84;66.37
40872;BME280;26591;43.264;26.940;2023-03-19T07:55:16;99647.03;;;9.91;66.98
40872;BME280;26591;43.264;26.940;2023-03-19T07:57:42;99641.69;;;10.47;66.13
40872;BME280;26591;43.264;26.940;2023-03-19T08:00:08;99643.31;;;10.02;64.70
40872;BME280;26591;43.264;26.940;2023-03-19T08:02:35;99640.81;;;9.82;65.53
40872;BME280;26591;43.264;26.940;2023-03-19T08:05:00;99638.69;;;10.32;65.08
40872;BME280;26591;43.264;26.940;2023-03-19T08:07:29;99644.88;;;10.68;64.59
40872;BME280;26591;43.264;26.940;2023-03-19T08:09:55;99640.78;;;11.19;62.58
40872;BME280;26591;43.264;26.940;2023-03-19T08:12:22;99645.22;;;11.71;61.19
40872;BME280;26591;43.264;26.940;2023-03-19T08:14:48;99645.50;;;11.94;60.70
40872;BME280;26591;43.264;26.940;2023-03-19T08:17:13;99630.56;;;12.28;59.09
40872;BME280;26591;43.264;26.940;2023-03-19T08:19:39;99644.34;;;12.48;58.68
40872;BME280;26591;43.264;26.940;2023-03-19T08:22:04;99647.69;;;12.83;57.66
40872;BME280;26591;43.264;26.940;2023-03-19T08:24:30;99639.72;;;13.00;56.96
40872;BME280;26591;43.264;26.940;2023-03-19T08:26:55;99638.91;;;12.82;57.17
40872;BME280;26591;43.264;26.940;2023-03-19T08:29:21;99637.41;;;12.72;57.25
40872;BME280;26591;43.264;26.940;2023-03-19T08:31:46;99635.91;;;13.10;57.00
40872;BME280;26591;43.264;26.940;2023-03-19T08:34:12;99633.88;;;13.21;55.81
40872;BME280;26591;43.264;26.940;2023-03-19T08:36:37;99638.34;;;13.28;59.92
40872;BME280;26591;43.264;26.940;2023-03-19T08:39:03;99627.88;;;13.35;55.76
40872;BME280;26591;43.264;26.940;2023-03-19T08:41:29;99631.84;;;13.56;55.16
40872;BME280;26591;43.264;26.940;2023-03-19T08:43:55;99632.72;;;13.15;55.27
40872;BME280;26591;43.264;26.940;2023-03-19T08:46:20;99629.88;;;13.17;55.04
40872;BME280;26591;43.264;26.940;2023-03-19T08:48:46;99639.34;;;13.36;55.25
40872;BME280;26591;43.264;26.940;2023-03-19T08:51:11;99629.00;;;13.66;55.07
40872;BME280;26591;43.264;26.940;2023-03-19T08:53:38;99630.66;;;13.58;53.83
40872;BME280;26591;43.264;26.940;2023-03-19T08:56:22;99624.88;;;13.95;53.97
40872;BME280;26591;43.264;26.940;2023-03-19T08:58:48;99632.63;;;14.36;53.25
40872;BME280;26591;43.264;26.940;2023-03-19T09:01:14;99621.53;;;14.32;52.23
40872;BME280;26591;43.264;26.940;2023-03-19T09:03:40;99623.31;;;14.40;51.97
40872;BME280;26591;43.264;26.940;2023-03-19T09:06:08;99629.25;;;14.74;51.39
40872;BME280;26591;43.264;26.940;2023-03-19T09:08:35;99628.97;;;15.22;51.26
40872;BME280;26591;43.264;26.940;2023-03-19T09:11:02;99627.88;;;15.61;48.73
40872;BME280;26591;43.264;26.940;2023-03-19T09:13:28;99623.69;;;14.99;50.18
40872;BME280;26591;43.264;26.940;2023-03-19T09:15:54;99618.03;;;15.47;49.64
40872;BME280;26591;43.264;26.940;2023-03-19T09:18:20;99615.84;;;15.65;48.80
40872;BME280;26591;43.264;26.940;2023-03-19T09:20:48;99612.88;;;15.60;48.63
40872;BME280;26591;43.264;26.940;2023-03-19T09:23:13;99608.03;;;15.34;49.65
40872;BME280;26591;43.264;26.940;2023-03-19T09:25:39;99610.78;;;15.40;49.77
40872;BME280;26591;43.264;26.940;2023-03-19T09:28:07;99608.19;;;15.32;49.49
40872;BME280;26591;43.264;26.940;2023-03-19T09:30:32;99600.03;;;15.49;48.94
40872;BME280;26591;43.264;26.940;2023-03-19T09:32:58;99602.13;;;15.68;48.60
40872;BME280;26591;43.264;26.940;2023-03-19T09:35:24;99594.75;;;16.00;48.04
40872;BME280;26591;43.264;26.940;2023-03-19T09:37:56;99592.88;;;16.16;46.98
40872;BME280;26591;43.264;26.940;2023-03-19T09:40:32;99585.81;;;16.52;46.28
40872;BME280;26591;43.264;26.940;2023-03-19T09:45:52;99591.44;;;16.85;45.14
40872;BME280;26591;43.264;26.940;2023-03-19T09:48:31;99586.81;;;16.72;45.15
40872;BME280;26591;43.264;26.940;2023-03-19T09:50:59;99574.13;;;16.53;45.74
40872;BME280;26591;43.264;26.940;2023-03-19T09:53:52;99582.56;;;16.56;48.74
40872;BME280;26591;43.264;26.940;2023-03-19T09:56:21;99571.19;;;16.47;45.55
40872;BME280;26591;43.264;26.940;2023-03-19T09:58:48;99569.75;;;15.86;47.05
40872;BME280;26591;43.264;26.940;2023-03-19T10:01:23;99571.69;;;15.63;47.33
40872;BME280;26591;43.264;26.940;2023-03-19T10:06:44;99562.97;;;16.06;45.55
40872;BME280;26591;43.264;26.940;2023-03-19T10:09:37;99552.69;;;16.02;46.28
40872;BME280;26591;43.264;26.940;2023-03-19T10:18:16;99539.72;;;15.99;46.69
40872;BME280;26591;43.264;26.940;2023-03-19T10:21:02;99534.91;;;15.58;47.24
40872;BME280;26591;43.264;26.940;2023-03-19T10:23:53;99538.31;;;15.52;47.97
40872;BME280;26591;43.264;26.940;2023-03-19T10:26:28;99526.00;;;15.21;47.78
40872;BME280;26591;43.264;26.940;2023-03-19T10:29:09;99518.81;;;15.36;47.42
40872;BME280;26591;43.264;26.940;2023-03-19T10:31:52;99517.50;;;15.62;46.72
40872;BME280;26591;43.264;26.940;2023-03-19T10:34:33;99520.31;;;15.76;46.58
40872;BME280;26591;43.264;26.940;2023-03-19T10:37:23;99513.59;;;15.80;46.65
40872;BME280;26591;43.264;26.940;2023-03-19T10:39:52;99511.28;;;15.55;46.25
40872;BME280;26591;43.264;26.940;2023-03-19T10:45:29;99505.00;;;16.43;44.65
40872;BME280;26591;43.264;26.940;2023-03-19T10:47:59;99496.59;;;16.46;45.42
40872;BME280;26591;43.264;26.940;2023-03-19T10:55:30;99488.94;;;15.78;45.70
40872;BME280;26591;43.264;26.940;2023-03-19T10:58:02;99483.44;;;16.01;45.77
40872;BME280;26591;43.264;26.940;2023-03-19T11:00:29;99482.81;;;15.99;46.06
40872;BME280;26591;43.264;26.940;2023-03-19T11:02:57;99482.16;;;15.97;45.62
40872;BME280;26591;43.264;26.940;2023-03-19T11:05:29;99477.66;;;16.19;45.74
40872;BME280;26591;43.264;26.940;2023-03-19T11:08:00;99465.16;;;16.48;44.62
40872;BME280;26591;43.264;26.940;2023-03-19T11:10:28;99463.38;;;17.26;43.42
40872;BME280;26591;43.264;26.940;2023-03-19T11:13:11;99463.91;;;17.07;43.74
40872;BME280;26591;43.264;26.940;2023-03-19T11:15:46;99462.53;;;16.90;43.45
40872;BME280;26591;43.264;26.940;2023-03-19T11:18:18;99454.25;;;17.68;41.73
40872;BME280;26591;43.264;26.940;2023-03-19T11:21:01;99451.25;;;17.98;40.65
40872;BME280;26591;43.264;26.940;2023-03-19T11:23:31;99449.06;;;17.53;41.99
40872;BME280;26591;43.264;26.940;2023-03-19T11:26:02;99448.28;;;17.66;41.81
40872;BME280;26591;43.264;26.940;2023-03-19T11:28:29;99445.06;;;18.11;41.11
40872;BME280;26591;43.264;26.940;2023-03-19T11:31:00;99442.31;;;17.78;42.03
40872;BME280;26591;43.264;26.940;2023-03-19T11:39:58;99437.22;;;18.30;40.53
40872;BME280;26591;43.264;26.940;2023-03-19T11:45:14;99428.53;;;18.61;40.45
40872;BME280;26591;43.264;26.940;2023-03-19T11:51:14;99432.84;;;18.63;40.20
40872;BME280;26591;43.264;26.940;2023-03-19T11:53:28;99422.59;;;18.12;41.37
40872;BME280;26591;43.264;26.940;2023-03-19T12:19:31;99412.91;;;18.05;40.17
40872;BME280;26591;43.264;26.940;2023-03-19T12:22:29;99416.00;;;18.42;40.14
40872;BME280;26591;43.264;26.940;2023-03-19T12:28:12;99414.53;;;17.85;39.98
40872;BME280;26591;43.264;26.940;2023-03-19T12:30:44;99405.06;;;17.69;40.85
40872;BME280;26591;43.264;26.940;2023-03-19T12:35:59;99401.31;;;18.58;39.68
40872;BME280;26591;43.264;26.940;2023-03-19T12:38:38;99400.25;;;18.72;38.83
40872;BME280;26591;43.264;26.940;2023-03-19T12:41:10;99396.03;;;18.24;39.81
40872;BME280;26591;43.264;26.940;2023-03-19T12:43:50;99387.38;;;18.15;39.81
40872;BME280;26591;43.264;26.940;2023-03-19T12:51:27;99380.97;;;17.90;40.80
40872;BME280;26591;43.264;26.940;2023-03-19T12:54:06;99379.94;;;18.24;40.42
40872;BME280;26591;43.264;26.940;2023-03-19T13:00:09;99374.16;;;18.48;39.45
40872;BME280;26591;43.264;26.940;2023-03-19T13:06:03;99378.19;;;18.70;38.92
40872;BME280;26591;43.264;26.940;2023-03-19T13:09:03;99369.88;;;18.13;40.23
40872;BME280;26591;43.264;26.940;2023-03-19T13:11:47;99364.91;;;17.96;40.01
40872;BME280;26591;43.264;26.940;2023-03-19T13:22:11;99355.84;;;17.77;40.60
40872;BME280;26591;43.264;26.940;2023-03-19T13:24:39;99355.63;;;17.72;39.96
40872;BME280;26591;43.264;26.940;2023-03-19T13:27:10;99350.50;;;17.64;40.41
40872;BME280;26591;43.264;26.940;2023-03-19T13:30:01;99342.25;;;17.72;40.95
40872;BME280;26591;43.264;26.940;2023-03-19T13:32:50;99348.41;;;17.59;40.00
40872;BME280;26591;43.264;26.940;2023-03-19T13:35:33;99343.28;;;17.84;41.71
40872;BME280;26591;43.264;26.940;2023-03-19T13:40:50;99335.25;;;17.71;42.32
40872;BME280;26591;43.264;26.940;2023-03-19T13:48:48;99338.09;;;18.30;41.36
40872;BME280;26591;43.264;26.940;2023-03-19T13:56:26;99331.59;;;16.55;42.71
40872;BME280;26591;43.264;26.940;2023-03-19T14:01:42;99324.25;;;17.12;41.05
40872;BME280;26591;43.264;26.940;2023-03-19T14:04:39;99316.44;;;17.04;41.81
40872;BME280;26591;43.264;26.940;2023-03-19T14:07:29;99319.31;;;17.09;41.52
40872;BME280;26591;43.264;26.940;2023-03-19T14:12:32;99320.59;;;17.33;40.83
40872;BME280;26591;43.264;26.940;2023-03-19T14:15:22;99321.41;;;17.20;41.03
40872;BME280;26591;43.264;26.940;2023-03-19T14:17:59;99320.06;;;16.89;41.84
40872;BME280;26591;43.264;26.940;2023-03-19T14:21:04;99313.25;;;16.38;42.61
40872;BME280;26591;43.264;26.940;2023-03-19T14:23:28;99312.66;;;16.08;43.50
40872;BME280;26591;43.264;26.940;2023-03-19T14:26:15;99311.38;;;16.32;43.10
40872;BME280;26591;43.264;26.940;2023-03-19T14:31:40;99313.06;;;16.40;42.92
40872;BME280;26591;43.264;26.940;2023-03-19T14:36:40;99318.31;;;16.61;42.12
40872;BME280;26591;43.264;26.940;2023-03-19T14:39:21;99307.28;;;16.36;42.42
40872;BME280;26591;43.264;26.940;2023-03-19T14:41:51;99317.16;;;16.42;43.64
40872;BME280;26591;43.264;26.940;2023-03-19T14:47:30;99307.97;;;17.00;41.37
40872;BME280;26591;43.264;26.940;2023-03-19T14:56:04;99316.72;;;16.04;43.22
40872;BME280;26591;43.264;26.940;2023-03-19T14:58:35;99311.72;;;15.87;43.55
40872;BME280;26591;43.264;26.940;2023-03-19T15:01:00;99311.13;;;15.92;43.85
40872;BME280;26591;43.264;26.940;2023-03-19T15:03:31;99308.88;;;15.95;43.50